Whitestown, Indiana
Current Conditions -  °F | °C
As of 3:35 PM on Monday 22 Dec 2014 (Local Time) from KTYQ Reporting Station
Broken Clouds Broken Clouds  
Wind Chill: 37°   Ceiling: 9000
Heat Index: 42°   Visibility: 10mi
Dew Point: 36°   Wind: 9mph
Humidity: 77%   Direction: 130°SE
Pressure: 29.78"   Gusts: NA
Location:  40°N, 86.35°W
Report Text: KTYQ 222035Z AUTO 13008KT 10SM SCT034 SCT065 BKN090 06/02 A2978 RMK AO2 T00570020
Loading
Personal Weather Stations






























Interactive Weather Map New forecast layout! Learn more

10-Day Weather Forecast

Advertisements
Track Severe Weather on mobile